createdAt,value
2023-05-08T00:04:34.941Z,17.6
2023-05-08T00:10:27.102Z,17.6
2023-05-08T00:16:18.577Z,17.6
2023-05-08T00:22:10.684Z,17.6
2023-05-08T00:28:02.736Z,17.6
2023-05-08T00:33:38.968Z,17.6
2023-05-08T00:39:29.752Z,17.6
2023-05-08T00:45:21.761Z,17.6
2023-05-08T00:50:57.630Z,17.6
2023-05-08T00:56:17.244Z,17.6
2023-05-08T01:01:54.531Z,17.6
2023-05-08T01:07:15.431Z,17.6
2023-05-08T01:13:05.983Z,17.6
2023-05-08T01:18:57.821Z,17.6
2023-05-08T01:24:48.868Z,17.6
2023-05-08T01:30:40.604Z,17.6
2023-05-08T01:36:32.816Z,17.6
2023-05-08T01:42:25.063Z,17.6
2023-05-08T01:48:00.898Z,17.6
2023-05-08T01:53:53.145Z,17.5
2023-05-08T01:59:44.908Z,17.5
2023-05-08T02:05:36.567Z,17.5
2023-05-08T02:11:28.757Z,17.5
2023-05-08T02:17:20.935Z,17.5
2023-05-08T02:23:12.368Z,17.5
2023-05-08T02:29:04.520Z,17.5
2023-05-08T02:35:04.458Z,17.5
2023-05-08T02:40:55.574Z,17.5
2023-05-08T02:46:48.103Z,17.4
2023-05-08T02:52:42.395Z,17.4
2023-05-08T02:58:33.806Z,17.4
2023-05-08T03:04:26.536Z,17.4
2023-05-08T03:10:17.629Z,17.4
2023-05-08T03:16:08.863Z,17.4
2023-05-08T03:22:01.496Z,17.4
2023-05-08T03:27:52.378Z,17.4
2023-05-08T03:33:44.317Z,17.4
2023-05-08T03:39:35.892Z,17.4
2023-05-08T03:45:27.665Z,17.4
2023-05-08T03:51:19.315Z,17.4
2023-05-08T03:57:11.591Z,17.4
2023-05-08T04:03:02.690Z,17.4
2023-05-08T04:09:02.086Z,17.4
2023-05-08T04:14:56.323Z,17.4
2023-05-08T04:20:48.562Z,17.4
2023-05-08T04:26:40.074Z,17.4
2023-05-08T04:32:32.392Z,17.4
2023-05-08T04:38:23.804Z,17.4
2023-05-08T04:44:16.681Z,17.4
2023-05-08T04:50:09.951Z,17.3
2023-05-08T04:56:01.175Z,17.3
2023-05-08T05:01:51.930Z,17.3
2023-05-08T05:07:44.917Z,17.3
2023-05-08T05:13:37.451Z,17.3
2023-05-08T05:19:29.489Z,17.3
2023-05-08T05:25:21.719Z,17.3
2023-05-08T05:31:12.476Z,17.3
2023-05-08T05:37:04.838Z,17.3
2023-05-08T05:42:57.135Z,17.3
2023-05-08T05:48:51.146Z,17.3
2023-05-08T05:54:42.521Z,17.3
2023-05-08T06:00:35.299Z,17.3
2023-05-08T06:06:29.431Z,17.3
2023-05-08T06:12:20.443Z,17.3
2023-05-08T06:18:15.602Z,17.3
2023-05-08T06:24:07.155Z,17.3
2023-05-08T06:29:58.556Z,17.3
2023-05-08T06:35:54.278Z,17.3
2023-05-08T06:41:55.759Z,17.3
2023-05-08T06:47:47.508Z,17.3
2023-05-08T06:53:40.219Z,17.3
2023-05-08T06:59:41.123Z,17.3
2023-05-08T07:05:33.373Z,17.3
2023-05-08T07:11:26.049Z,17.3
2023-05-08T07:17:34.077Z,17.3
2023-05-08T07:23:27.768Z,17.3
2023-05-08T07:29:22.378Z,17.3
2023-05-08T07:35:14.227Z,17.3
2023-05-08T07:40:50.546Z,17.3
2023-05-08T07:46:39.819Z,17.4
2023-05-08T07:52:32.125Z,17.3
2023-05-08T07:58:25.345Z,17.4
2023-05-08T08:04:03.027Z,17.3
2023-05-08T08:09:55.767Z,17.4
2023-05-08T08:15:48.052Z,17.4
2023-05-08T08:21:41.882Z,17.4
2023-05-08T08:27:34.251Z,17.4
2023-05-08T08:33:39.038Z,17.4
2023-05-08T08:39:32.693Z,17.4
2023-05-08T08:45:13.190Z,17.4
2023-05-08T08:51:06.263Z,17.4
2023-05-08T08:56:58.959Z,17.4
2023-05-08T09:02:51.888Z,17.4
2023-05-08T09:08:46.889Z,17.4
2023-05-08T09:14:43.131Z,17.4
2023-05-08T09:20:36.828Z,17.4
2023-05-08T09:26:13.366Z,17.4
2023-05-08T09:32:06.825Z,17.4
2023-05-08T09:38:00.225Z,17.4
2023-05-08T09:43:52.271Z,17.4
2023-05-08T09:49:46.161Z,17.4
2023-05-08T09:55:40.064Z,17.4
2023-05-08T10:01:32.534Z,17.4
2023-05-08T10:07:29.298Z,17.4
2023-05-08T10:13:38.044Z,17.4
2023-05-08T10:19:29.850Z,17.4
2023-05-08T10:25:21.874Z,17.4
2023-05-08T10:31:29.455Z,17.5
2023-05-08T10:37:21.808Z,17.5
2023-05-08T10:43:15.011Z,17.5
2023-05-08T10:49:07.762Z,17.5
2023-05-08T10:55:00.697Z,17.5
2023-05-08T11:00:52.566Z,17.5
2023-05-08T11:06:58.462Z,17.5
2023-05-08T11:12:50.820Z,17.5
2023-05-08T11:18:54.635Z,17.6
2023-05-08T11:24:46.431Z,17.6
2023-05-08T11:30:38.588Z,17.5
2023-05-08T11:36:31.148Z,17.6
2023-05-08T11:42:22.838Z,17.6
2023-05-08T11:48:14.945Z,17.6
2023-05-08T11:54:10.212Z,17.6
2023-05-08T11:59:48.481Z,17.6
2023-05-08T12:05:59.983Z,17.6
2023-05-08T12:11:53.520Z,17.6
2023-05-08T12:17:45.087Z,17.7
2023-05-08T12:23:21.876Z,17.7
2023-05-08T12:29:13.753Z,17.7
2023-05-08T12:35:05.599Z,17.8
2023-05-08T12:40:57.476Z,17.8
2023-05-08T12:46:50.460Z,17.8
2023-05-08T12:52:27.049Z,17.8
2023-05-08T12:58:03.177Z,17.8
2023-05-08T13:04:09.467Z,17.8
2023-05-08T13:10:02.064Z,17.9
2023-05-08T13:15:57.270Z,17.9
2023-05-08T13:21:51.272Z,17.9
2023-05-08T13:27:42.956Z,17.8
2023-05-08T13:33:38.164Z,17.9
2023-05-08T13:39:34.294Z,17.9
2023-05-08T13:45:26.936Z,17.9
2023-05-08T13:51:19.041Z,17.9
2023-05-08T13:57:19.692Z,17.9
2023-05-08T14:03:26.612Z,17.9
2023-05-08T14:09:23.849Z,17.9
2023-05-08T14:15:17.228Z,17.9
2023-05-08T14:21:14.319Z,17.9
2023-05-08T14:27:06.921Z,17.9
2023-05-08T14:32:45.088Z,17.9
2023-05-08T14:38:23.126Z,17.9
2023-05-08T14:44:35.497Z,17.9
2023-05-08T15:12:28.549Z,17.9
2023-05-08T15:18:24.481Z,17.9
2023-05-08T15:24:16.251Z,17.9
2023-05-08T15:30:07.810Z,17.9
2023-05-08T15:35:49.719Z,17.9
2023-05-08T15:41:41.173Z,18
2023-05-08T15:47:44.554Z,18
2023-05-08T15:53:38.513Z,17.9
2023-05-08T15:59:31.206Z,17.9
2023-05-08T16:05:31.708Z,17.9
2023-05-08T16:11:27.039Z,18
2023-05-08T16:17:19.342Z,18
2023-05-08T16:22:56.199Z,17.9
2023-05-08T16:28:50.805Z,17.9
2023-05-08T16:34:46.181Z,17.9
2023-05-08T16:40:44.416Z,17.9
2023-05-08T16:46:47.339Z,17.9
2023-05-08T16:52:30.600Z,17.9
2023-05-08T16:58:15.473Z,17.9
2023-05-08T17:04:19.786Z,17.9
2023-05-08T17:10:20.405Z,17.9
2023-05-08T17:16:21.715Z,17.9
2023-05-08T17:22:24.880Z,17.9
2023-05-08T17:28:08.421Z,17.9
2023-05-08T17:34:11.612Z,17.9
2023-05-08T17:40:15.701Z,17.9
2023-05-08T17:46:16.480Z,17.9
2023-05-08T17:52:18.486Z,17.9
2023-05-08T17:58:21.728Z,17.9
2023-05-08T18:04:21.252Z,17.9
2023-05-08T18:10:14.941Z,17.9
2023-05-08T18:16:09.439Z,17.9
2023-05-08T18:22:01.757Z,17.9
2023-05-08T18:27:53.798Z,17.9
2023-05-08T18:33:48.732Z,17.9
2023-05-08T18:39:42.899Z,17.9
2023-05-08T18:45:19.946Z,17.9
2023-05-08T18:51:14.609Z,17.9
2023-05-08T18:57:06.939Z,17.9
2023-05-08T19:03:00.150Z,17.9
2023-05-08T19:08:54.841Z,17.9
2023-05-08T19:14:46.899Z,17.9
2023-05-08T19:20:39.720Z,17.9
2023-05-08T19:26:34.788Z,17.9
2023-05-08T19:32:12.236Z,17.9
2023-05-08T19:38:04.762Z,17.8
2023-05-08T19:44:15.077Z,17.9
2023-05-08T19:50:13.670Z,17.9
2023-05-08T19:56:07.052Z,17.9
2023-05-08T20:02:01.374Z,17.8
2023-05-08T20:08:15.127Z,17.8
2023-05-08T20:13:52.223Z,17.8
2023-05-08T20:19:46.889Z,17.8
2023-05-08T20:25:38.272Z,17.8
2023-05-08T20:31:31.348Z,17.8
2023-05-08T20:37:25.961Z,17.8
2023-05-08T20:43:17.217Z,17.8
2023-05-08T20:49:09.360Z,17.8
2023-05-08T20:55:05.419Z,17.8
2023-05-08T21:00:44.372Z,17.8
2023-05-08T21:06:40.211Z,17.8
2023-05-08T21:12:34.066Z,17.8
2023-05-08T21:18:25.844Z,17.8
2023-05-08T21:24:17.309Z,17.8
2023-05-08T21:30:12.159Z,17.8
2023-05-08T21:36:04.846Z,17.8
2023-05-08T21:41:55.415Z,17.8
2023-05-08T21:47:49.562Z,17.8
2023-05-08T21:53:39.106Z,17.8
2023-05-08T21:59:30.734Z,17.8
2023-05-08T22:05:25.862Z,17.8
2023-05-08T22:11:17.518Z,17.8
2023-05-08T22:17:25.858Z,17.8
2023-05-08T22:23:20.114Z,17.8
2023-05-08T22:28:56.225Z,17.8
2023-05-08T22:34:47.744Z,17.8
2023-05-08T22:40:41.012Z,17.8
2023-05-08T22:46:32.110Z,17.8
2023-05-08T22:52:24.090Z,17.8
2023-05-08T22:58:18.745Z,17.7
2023-05-08T23:04:10.297Z,17.8
2023-05-08T23:10:01.463Z,17.8
2023-05-08T23:15:55.111Z,17.8
2023-05-08T23:21:45.862Z,17.7
2023-05-08T23:27:38.860Z,17.7
2023-05-08T23:33:32.727Z,17.7
2023-05-08T23:39:23.452Z,17.7
2023-05-08T23:45:14.538Z,17.7
2023-05-08T23:51:08.669Z,17.7
2023-05-08T23:57:00.677Z,17.7
